createdAt,value
2018-06-27T00:00:09.638Z,24.30
2018-06-27T00:01:09.703Z,20.90
2018-06-27T00:02:09.693Z,21.80
2018-06-27T00:03:09.684Z,20.80
2018-06-27T00:04:09.700Z,22.40
2018-06-27T00:05:09.738Z,21.80
2018-06-27T00:06:09.725Z,22.50
2018-06-27T00:07:09.742Z,22.10
2018-06-27T00:08:09.756Z,21.10
2018-06-27T00:09:09.781Z,19.20
2018-06-27T00:10:10.092Z,19.50
2018-06-27T00:11:09.821Z,21.00
2018-06-27T00:12:09.821Z,20.50
2018-06-27T00:13:09.831Z,22.80
2018-06-27T00:14:09.846Z,26.60
2018-06-27T00:15:09.879Z,24.40
2018-06-27T00:16:09.888Z,21.50
2018-06-27T00:17:09.889Z,25.40
2018-06-27T00:18:09.904Z,23.40
2018-06-27T00:19:09.920Z,22.60
2018-06-27T00:20:09.933Z,21.90
2018-06-27T00:21:09.945Z,22.30
2018-06-27T00:23:10.057Z,25.20
2018-06-27T00:24:09.993Z,22.50
2018-06-27T00:25:10.006Z,22.80
2018-06-27T00:26:10.022Z,21.90
2018-06-27T00:27:10.039Z,23.70
2018-06-27T00:28:10.063Z,22.70
2018-06-27T00:29:10.094Z,21.00
2018-06-27T00:30:10.096Z,22.00
2018-06-27T00:31:10.156Z,22.30
2018-06-27T00:32:10.110Z,25.70
2018-06-27T00:33:10.130Z,20.40
2018-06-27T00:34:10.139Z,20.70
2018-06-27T00:35:10.155Z,21.30
2018-06-27T00:36:10.171Z,22.30
2018-06-27T00:37:10.198Z,22.00
2018-06-27T00:38:10.201Z,22.50
2018-06-27T00:39:10.222Z,22.30
2018-06-27T00:40:10.263Z,25.50
2018-06-27T00:41:10.252Z,21.20
2018-06-27T00:42:10.276Z,21.00
2018-06-27T00:43:10.281Z,21.50
2018-06-27T00:44:10.294Z,21.90
2018-06-27T00:45:10.303Z,21.80
2018-06-27T00:46:10.330Z,22.30
2018-06-27T00:47:10.330Z,23.70
2018-06-27T00:48:10.344Z,27.70
2018-06-27T00:49:10.357Z,22.90
2018-06-27T00:50:10.374Z,23.60
2018-06-27T00:51:10.387Z,23.00
2018-06-27T00:53:10.445Z,22.80
2018-06-27T00:54:10.430Z,25.80
2018-06-27T00:55:10.470Z,22.70
2018-06-27T00:56:10.462Z,23.70
2018-06-27T00:57:10.560Z,24.00
2018-06-27T00:58:10.503Z,23.70
2018-06-27T00:59:10.512Z,22.60
2018-06-27T01:00:10.518Z,24.20
2018-06-27T01:01:10.535Z,24.70
2018-06-27T01:02:10.547Z,20.70
2018-06-27T01:03:10.567Z,22.60
2018-06-27T01:04:10.582Z,24.70
2018-06-27T01:05:10.637Z,20.40
2018-06-27T01:06:10.612Z,21.20
2018-06-27T01:07:10.630Z,23.80
2018-06-27T01:08:10.636Z,23.30
2018-06-27T01:09:10.648Z,23.90
2018-06-27T01:10:10.662Z,21.80
2018-06-27T01:11:10.676Z,20.90
2018-06-27T01:12:10.691Z,24.30
2018-06-27T01:13:10.707Z,23.00
2018-06-27T01:14:10.722Z,20.50
2018-06-27T01:15:10.738Z,21.10
2018-06-27T01:16:10.750Z,21.90
2018-06-27T01:17:10.819Z,24.00
2018-06-27T01:18:10.826Z,22.10
2018-06-27T01:19:10.796Z,24.20
2018-06-27T01:20:10.884Z,22.70
2018-06-27T01:21:10.825Z,21.60
2018-06-27T01:22:10.837Z,20.90
2018-06-27T01:23:10.858Z,22.50
2018-06-27T01:24:10.931Z,23.60
2018-06-27T01:25:11.011Z,20.80
2018-06-27T01:26:10.908Z,24.10
2018-06-27T01:27:10.920Z,21.20
2018-06-27T01:28:10.926Z,22.70
2018-06-27T01:29:10.937Z,24.60
2018-06-27T01:30:10.991Z,23.60
2018-06-27T01:31:10.970Z,21.30
2018-06-27T01:32:10.982Z,24.80
2018-06-27T01:33:10.997Z,21.70
2018-06-27T01:34:11.085Z,21.90
2018-06-27T01:35:11.060Z,20.70
2018-06-27T01:36:11.098Z,25.10
2018-06-27T01:37:11.053Z,23.10
2018-06-27T01:38:11.074Z,21.90
2018-06-27T01:39:11.084Z,23.10
2018-06-27T01:40:11.577Z,24.00
2018-06-27T01:42:11.127Z,21.50
2018-06-27T01:43:11.146Z,24.70
2018-06-27T01:44:11.156Z,21.30
2018-06-27T01:45:11.185Z,22.10
2018-06-27T01:46:11.186Z,22.00
2018-06-27T01:47:11.199Z,24.80
2018-06-27T01:48:11.214Z,24.00
2018-06-27T01:49:11.226Z,22.80
2018-06-27T01:50:11.247Z,21.70
2018-06-27T01:51:11.278Z,25.40
2018-06-27T01:52:11.272Z,22.60
2018-06-27T01:53:11.285Z,24.00
2018-06-27T01:54:11.298Z,25.00
2018-06-27T01:55:11.313Z,23.90
2018-06-27T01:56:11.330Z,21.40
2018-06-27T01:57:11.345Z,22.80
2018-06-27T01:58:11.359Z,24.70
2018-06-27T01:59:11.371Z,22.70
2018-06-27T02:00:11.395Z,21.90
2018-06-27T02:01:11.417Z,22.60
2018-06-27T02:02:11.629Z,22.70
2018-06-27T02:03:11.463Z,26.90
2018-06-27T02:04:11.860Z,25.00
2018-06-27T02:05:11.461Z,20.00
2018-06-27T02:06:11.471Z,24.70
2018-06-27T02:07:11.486Z,23.10
2018-06-27T02:08:11.641Z,21.50
2018-06-27T02:09:11.516Z,24.00
2018-06-27T02:10:11.543Z,22.40
2018-06-27T02:11:11.544Z,23.30
2018-06-27T02:12:11.560Z,21.60
2018-06-27T02:13:11.626Z,24.80
2018-06-27T02:14:11.597Z,22.20
2018-06-27T02:15:11.604Z,24.20
2018-06-27T02:16:11.645Z,22.70
2018-06-27T02:17:11.643Z,24.80
2018-06-27T02:18:11.645Z,24.60
2018-06-27T02:19:11.664Z,25.70
2018-06-27T02:20:11.673Z,23.70
2018-06-27T02:21:11.688Z,21.30
2018-06-27T02:22:11.705Z,20.70
2018-06-27T02:23:11.734Z,20.30
2018-06-27T02:24:11.747Z,22.80
2018-06-27T02:25:11.745Z,19.90
2018-06-27T02:26:11.762Z,20.70
2018-06-27T02:27:11.775Z,22.90
2018-06-27T02:28:11.795Z,23.00
2018-06-27T02:29:11.806Z,25.20
2018-06-27T02:30:11.818Z,20.10
2018-06-27T02:31:11.832Z,23.90
2018-06-27T02:33:11.863Z,22.90
2018-06-27T02:34:11.874Z,21.10
2018-06-27T02:35:11.887Z,22.70
2018-06-27T02:36:11.908Z,21.30
2018-06-27T02:37:11.934Z,25.30
2018-06-27T02:38:11.936Z,24.30
2018-06-27T02:39:11.944Z,25.30
2018-06-27T02:40:11.975Z,29.00
2018-06-27T02:41:11.986Z,22.70
2018-06-27T02:42:12.007Z,23.30
2018-06-27T02:43:12.146Z,22.60
2018-06-27T02:44:12.017Z,22.50
2018-06-27T02:45:12.033Z,22.60
2018-06-27T02:46:12.046Z,21.80
2018-06-27T02:47:12.060Z,24.20
2018-06-27T02:48:12.080Z,23.20
2018-06-27T02:49:12.091Z,19.70
2018-06-27T02:50:12.101Z,24.00
2018-06-27T02:51:12.119Z,20.80
2018-06-27T02:52:12.130Z,24.30
2018-06-27T02:53:12.157Z,26.40
2018-06-27T02:54:12.162Z,23.80
2018-06-27T02:55:12.179Z,23.60
2018-06-27T02:56:12.193Z,22.10
2018-06-27T02:57:12.223Z,22.60
2018-06-27T02:58:12.217Z,24.50
2018-06-27T02:59:12.232Z,23.50
2018-06-27T03:00:12.244Z,25.90
2018-06-27T03:01:12.262Z,22.10
2018-06-27T03:02:12.298Z,21.40
2018-06-27T03:03:12.338Z,24.80
2018-06-27T03:04:12.313Z,25.90
2018-06-27T03:05:12.374Z,23.90
2018-06-27T03:06:13.112Z,23.80
2018-06-27T03:07:12.356Z,22.00
2018-06-27T03:08:12.362Z,24.40
2018-06-27T03:09:12.373Z,23.60
2018-06-27T03:10:12.386Z,24.80
2018-06-27T03:11:12.407Z,30.40
2018-06-27T03:12:12.431Z,23.50
2018-06-27T03:13:12.437Z,24.30
2018-06-27T03:14:12.963Z,23.40
2018-06-27T03:15:12.475Z,22.40
2018-06-27T03:16:12.485Z,22.40
2018-06-27T03:17:12.490Z,26.40
2018-06-27T03:18:12.506Z,25.20
2018-06-27T03:19:12.576Z,23.90
2018-06-27T03:20:12.559Z,23.50
2018-06-27T03:21:12.546Z,22.80
2018-06-27T03:22:12.558Z,26.70
2018-06-27T03:23:12.576Z,24.50
2018-06-27T03:24:12.609Z,25.40
2018-06-27T03:25:12.619Z,24.30
2018-06-27T03:26:12.613Z,24.80
2018-06-27T03:27:12.628Z,25.60
2018-06-27T03:28:12.643Z,27.20
2018-06-27T03:29:12.683Z,27.70
2018-06-27T03:30:12.675Z,25.20
2018-06-27T03:31:12.713Z,22.30
2018-06-27T03:32:12.726Z,23.70
2018-06-27T03:33:12.715Z,24.60
2018-06-27T03:34:12.727Z,25.20
2018-06-27T03:35:12.753Z,24.70
2018-06-27T03:36:12.806Z,26.30
2018-06-27T03:37:12.903Z,22.90
2018-06-27T03:38:12.900Z,26.90
2018-06-27T03:40:13.011Z,28.30
2018-06-27T03:41:12.865Z,27.50
2018-06-27T03:42:12.841Z,27.80
2018-06-27T03:43:12.855Z,26.30
2018-06-27T03:44:12.870Z,26.10
2018-06-27T03:45:12.882Z,26.00
2018-06-27T03:46:12.896Z,24.20
2018-06-27T03:47:12.916Z,26.10
2018-06-27T03:48:12.927Z,26.80
2018-06-27T03:49:12.939Z,24.50
2018-06-27T03:50:12.977Z,27.60
2018-06-27T03:51:12.970Z,26.70
2018-06-27T03:52:12.982Z,25.10
2018-06-27T03:53:12.997Z,26.30
2018-06-27T03:54:13.020Z,29.40
2018-06-27T03:55:13.028Z,25.10
2018-06-27T03:56:13.042Z,26.30
2018-06-27T03:57:13.053Z,27.90
2018-06-27T03:58:13.082Z,29.70
2018-06-27T03:59:13.088Z,27.60
2018-06-27T04:00:13.160Z,29.00
2018-06-27T04:01:13.149Z,31.00
2018-06-27T04:02:13.160Z,25.50
2018-06-27T04:03:13.189Z,26.20
2018-06-27T04:04:13.151Z,30.90
2018-06-27T04:05:13.171Z,28.60
2018-06-27T04:06:13.188Z,28.30
2018-06-27T04:07:13.195Z,28.40
2018-06-27T04:08:13.295Z,26.60
2018-06-27T04:10:13.313Z,30.50
2018-06-27T04:11:13.255Z,25.70
2018-06-27T04:12:13.285Z,29.60
2018-06-27T04:13:13.357Z,30.50
2018-06-27T04:14:13.294Z,27.10
2018-06-27T04:15:13.466Z,26.60
2018-06-27T04:16:13.324Z,25.20
2018-06-27T04:17:13.336Z,32.80
2018-06-27T04:18:13.365Z,26.50
2018-06-27T04:19:13.364Z,32.30
2018-06-27T04:20:13.426Z,29.10
2018-06-27T04:21:13.397Z,26.10
2018-06-27T04:22:13.409Z,31.10
2018-06-27T04:23:13.423Z,30.90
2018-06-27T04:24:13.438Z,29.40
2018-06-27T04:25:13.461Z,26.20
2018-06-27T04:26:13.477Z,26.60
2018-06-27T04:27:13.481Z,28.60
2018-06-27T04:28:13.495Z,25.50
2018-06-27T04:29:13.522Z,29.30
2018-06-27T04:30:13.835Z,26.40
2018-06-27T04:31:13.611Z,28.40
2018-06-27T04:32:13.723Z,31.10
2018-06-27T04:33:13.576Z,29.40
2018-06-27T04:34:13.725Z,29.20
2018-06-27T04:35:13.601Z,32.70
2018-06-27T04:36:13.733Z,31.30
2018-06-27T04:37:13.624Z,33.20
2018-06-27T04:38:14.303Z,29.00
2018-06-27T04:39:15.818Z,25.80
2018-06-27T04:40:13.753Z,31.20
2018-06-27T04:41:13.689Z,31.70
2018-06-27T04:42:13.698Z,32.50
2018-06-27T04:43:13.751Z,30.70
2018-06-27T04:44:13.734Z,31.50
2018-06-27T04:45:13.918Z,33.50
2018-06-27T04:46:13.765Z,32.20
2018-06-27T04:47:15.066Z,30.70
2018-06-27T04:48:13.779Z,30.10
2018-06-27T04:49:13.817Z,29.80
2018-06-27T04:50:13.822Z,32.70
2018-06-27T04:51:13.827Z,28.50
2018-06-27T04:52:13.845Z,32.40
2018-06-27T04:53:13.877Z,30.00
2018-06-27T04:54:13.866Z,33.60
2018-06-27T04:55:13.880Z,29.70
2018-06-27T04:56:14.319Z,28.50
2018-06-27T04:57:13.984Z,33.00
2018-06-27T04:58:13.952Z,26.60
2018-06-27T04:59:13.970Z,28.80
2018-06-27T05:00:13.979Z,26.80
2018-06-27T05:01:14.024Z,29.40
2018-06-27T05:02:14.158Z,28.90
2018-06-27T05:03:13.996Z,29.80
2018-06-27T05:04:14.040Z,31.40
2018-06-27T05:05:14.029Z,29.90
2018-06-27T05:06:14.054Z,29.60
2018-06-27T05:07:14.067Z,31.50
2018-06-27T05:08:14.160Z,33.20
2018-06-27T05:09:14.082Z,30.80
2018-06-27T05:10:14.458Z,31.80
2018-06-27T05:11:14.302Z,31.00
2018-06-27T05:12:14.157Z,33.10
2018-06-27T05:13:15.152Z,27.70
2018-06-27T05:14:14.303Z,32.10
2018-06-27T05:15:14.169Z,32.00
2018-06-27T05:16:14.187Z,34.50
2018-06-27T05:17:14.242Z,30.10
2018-06-27T05:18:14.235Z,31.90
2018-06-27T05:19:14.246Z,27.90
2018-06-27T05:20:14.267Z,36.20
2018-06-27T05:21:14.270Z,35.50
2018-06-27T05:22:14.275Z,29.20
2018-06-27T05:23:14.304Z,30.90
2018-06-27T05:25:14.333Z,29.80
2018-06-27T05:26:14.339Z,30.10
2018-06-27T05:27:14.388Z,30.90
2018-06-27T05:28:14.374Z,28.60
2018-06-27T05:29:14.414Z,31.40
2018-06-27T05:30:14.432Z,34.90
2018-06-27T05:31:14.421Z,33.30
2018-06-27T05:32:14.429Z,27.70
2018-06-27T05:33:14.458Z,26.90
2018-06-27T05:34:14.446Z,30.80
2018-06-27T05:35:14.500Z,30.50
2018-06-27T05:36:14.495Z,34.70
2018-06-27T05:37:14.493Z,32.40
2018-06-27T05:38:14.524Z,28.20
2018-06-27T05:39:14.536Z,31.50
2018-06-27T05:40:14.761Z,31.20
2018-06-27T05:41:14.643Z,31.20
2018-06-27T05:42:14.594Z,31.70
2018-06-27T05:43:14.595Z,31.30
2018-06-27T05:44:14.651Z,31.20
2018-06-27T05:45:14.648Z,29.80
2018-06-27T05:46:14.654Z,32.00
2018-06-27T05:47:14.639Z,31.60
2018-06-27T05:48:14.847Z,29.10
2018-06-27T05:49:15.508Z,32.10
2018-06-27T05:50:14.707Z,30.80
2018-06-27T05:51:15.188Z,27.90
2018-06-27T05:52:15.531Z,33.30
2018-06-27T05:53:14.755Z,31.90
2018-06-27T05:54:14.781Z,32.20
2018-06-27T05:55:14.785Z,28.10
2018-06-27T05:56:14.773Z,29.20
2018-06-27T05:57:14.804Z,26.90
2018-06-27T05:58:14.829Z,27.80
2018-06-27T05:59:15.470Z,30.10
2018-06-27T06:00:14.879Z,30.00
2018-06-27T06:01:14.884Z,30.80
2018-06-27T06:02:15.213Z,28.20
2018-06-27T06:03:15.097Z,30.60
2018-06-27T06:04:15.711Z,31.90
2018-06-27T06:05:14.951Z,29.00
2018-06-27T06:06:14.951Z,30.30
2018-06-27T06:07:14.995Z,31.60
2018-06-27T06:08:15.044Z,27.90
2018-06-27T06:09:15.026Z,29.90
2018-06-27T06:10:14.998Z,26.50
2018-06-27T06:11:15.131Z,29.80
2018-06-27T06:12:15.084Z,28.20
2018-06-27T06:13:15.200Z,30.40
2018-06-27T06:14:15.222Z,26.80
2018-06-27T06:15:15.050Z,26.40
2018-06-27T06:16:15.070Z,27.90
2018-06-27T06:17:15.080Z,28.80
2018-06-27T06:18:15.097Z,34.50
2018-06-27T06:19:15.113Z,26.30
2018-06-27T06:20:15.427Z,29.50
2018-06-27T06:21:15.146Z,27.80
2018-06-27T06:22:15.710Z,24.60
2018-06-27T06:24:15.850Z,31.10
2018-06-27T06:25:15.219Z,27.80
2018-06-27T06:26:15.628Z,27.80
2018-06-27T06:27:15.509Z,27.90
2018-06-27T06:28:15.254Z,32.20
2018-06-27T06:29:15.268Z,27.10
2018-06-27T06:30:15.273Z,27.20
2018-06-27T06:31:15.428Z,28.60
2018-06-27T06:32:15.336Z,23.60
2018-06-27T06:34:15.383Z,25.90
2018-06-27T06:35:15.428Z,27.40
2018-06-27T06:36:15.421Z,25.20
2018-06-27T06:38:15.444Z,24.10
2018-06-27T06:39:15.404Z,27.50
2018-06-27T06:40:15.731Z,25.10
2018-06-27T06:41:15.431Z,24.00
2018-06-27T06:42:15.543Z,26.40
2018-06-27T06:43:15.462Z,24.00
2018-06-27T06:44:15.478Z,27.60
2018-06-27T06:45:15.591Z,27.10
2018-06-27T06:46:15.557Z,29.00
2018-06-27T06:47:15.564Z,26.20
2018-06-27T06:48:15.599Z,26.00
2018-06-27T06:49:16.059Z,32.00
2018-06-27T06:51:16.218Z,26.80
2018-06-27T06:52:15.704Z,29.10
2018-06-27T06:53:15.863Z,25.40
2018-06-27T06:54:16.157Z,26.40
2018-06-27T06:55:15.710Z,30.80
2018-06-27T06:56:15.676Z,25.20
2018-06-27T06:57:15.736Z,30.00
2018-06-27T06:58:15.729Z,32.20
2018-06-27T06:59:16.174Z,26.90
2018-06-27T07:00:15.717Z,27.20
2018-06-27T07:01:15.819Z,29.50
2018-06-27T07:02:15.907Z,32.80
2018-06-27T07:03:15.778Z,28.50
2018-06-27T07:04:15.869Z,24.00
2018-06-27T07:05:15.941Z,24.80
2018-06-27T07:07:15.826Z,30.80
2018-06-27T07:08:15.839Z,26.60
2018-06-27T07:09:15.856Z,25.50
2018-06-27T07:10:15.868Z,30.70
2018-06-27T07:11:16.031Z,30.60
2018-06-27T07:12:16.566Z,24.30
2018-06-27T07:13:16.093Z,24.90
2018-06-27T07:14:16.183Z,25.00
2018-06-27T07:15:15.946Z,24.60
2018-06-27T07:16:16.010Z,24.70
2018-06-27T07:17:15.992Z,24.00
2018-06-27T07:18:15.990Z,23.50
2018-06-27T07:19:16.642Z,29.10
2018-06-27T07:20:16.985Z,28.50
2018-06-27T07:22:16.799Z,24.40
2018-06-27T07:23:16.849Z,23.40
2018-06-27T07:24:16.102Z,27.20
2018-06-27T07:25:16.099Z,26.40
2018-06-27T07:26:16.128Z,22.30
2018-06-27T07:27:16.132Z,24.80
2018-06-27T07:28:16.151Z,26.30
2018-06-27T07:29:16.250Z,23.70
2018-06-27T07:30:16.199Z,25.30
2018-06-27T07:31:16.242Z,21.50
2018-06-27T07:32:16.427Z,24.70
2018-06-27T07:33:16.370Z,21.00
2018-06-27T07:34:16.352Z,25.10
2018-06-27T07:35:16.362Z,21.10
2018-06-27T07:36:16.308Z,24.50
2018-06-27T07:37:16.301Z,22.70
2018-06-27T07:38:16.316Z,22.00
2018-06-27T07:39:16.335Z,23.50
2018-06-27T07:40:16.415Z,21.90
2018-06-27T07:41:16.347Z,24.60
2018-06-27T07:42:16.373Z,26.50
2018-06-27T07:43:16.387Z,24.00
2018-06-27T07:44:17.128Z,26.50
2018-06-27T07:45:17.053Z,23.80
2018-06-27T07:46:16.529Z,25.90
2018-06-27T07:47:16.479Z,24.80
2018-06-27T07:48:16.919Z,21.40
2018-06-27T07:49:18.747Z,25.30
2018-06-27T07:50:18.062Z,26.30
2018-06-27T07:51:16.507Z,21.90
2018-06-27T07:52:16.576Z,23.40
2018-06-27T07:53:16.533Z,23.80
2018-06-27T07:54:16.545Z,24.20
2018-06-27T07:55:16.753Z,23.30
2018-06-27T07:56:16.672Z,24.80
2018-06-27T07:57:16.729Z,24.90
2018-06-27T07:59:16.653Z,24.30
2018-06-27T08:00:16.675Z,22.40
2018-06-27T08:01:17.656Z,23.50
2018-06-27T08:02:16.728Z,23.00
2018-06-27T08:04:16.745Z,22.40
2018-06-27T08:05:16.720Z,24.20
2018-06-27T08:06:16.897Z,21.80
2018-06-27T08:07:16.758Z,21.20
2018-06-27T08:08:16.856Z,24.60
2018-06-27T08:09:16.845Z,22.30
2018-06-27T08:10:17.180Z,19.70
2018-06-27T08:11:17.016Z,21.10
2018-06-27T08:13:17.789Z,23.60
2018-06-27T08:14:17.241Z,20.30
2018-06-27T08:15:17.835Z,21.70
2018-06-27T08:16:19.066Z,25.80
2018-06-27T08:17:16.975Z,22.40
2018-06-27T08:18:17.076Z,20.70
2018-06-27T08:19:16.959Z,23.00
2018-06-27T08:20:16.957Z,24.00
2018-06-27T08:21:17.069Z,22.10
2018-06-27T08:22:17.136Z,24.00
2018-06-27T08:23:17.108Z,19.10
2018-06-27T08:24:17.101Z,21.40
2018-06-27T08:25:17.046Z,27.10
2018-06-27T08:26:17.107Z,23.80
2018-06-27T08:27:17.192Z,26.60
2018-06-27T08:28:17.275Z,25.10
2018-06-27T08:29:17.109Z,22.10
2018-06-27T08:30:17.141Z,24.80
2018-06-27T08:31:18.194Z,21.10
2018-06-27T08:32:17.852Z,19.60
2018-06-27T08:33:17.268Z,20.70
2018-06-27T08:34:17.461Z,23.00
2018-06-27T08:35:17.277Z,21.60
2018-06-27T08:36:17.229Z,22.90
2018-06-27T08:37:17.230Z,23.10
2018-06-27T08:38:17.281Z,23.70
2018-06-27T08:39:17.255Z,19.50
2018-06-27T08:40:17.267Z,18.60
2018-06-27T08:41:17.285Z,19.60
2018-06-27T08:42:17.305Z,19.50
2018-06-27T08:43:17.418Z,20.00
2018-06-27T08:44:17.335Z,21.30
2018-06-27T08:45:17.345Z,21.70
2018-06-27T08:46:17.360Z,20.60
2018-06-27T08:47:17.411Z,18.50
2018-06-27T08:48:17.400Z,19.90
2018-06-27T08:49:17.555Z,19.40
2018-06-27T08:50:17.574Z,18.60
2018-06-27T08:51:17.453Z,23.80
2018-06-27T08:52:17.463Z,21.70
2018-06-27T08:53:17.658Z,21.00
2018-06-27T08:55:17.860Z,19.60
2018-06-27T08:56:17.985Z,17.30
2018-06-27T08:57:17.542Z,19.70
2018-06-27T08:58:17.570Z,17.60
2018-06-27T08:59:17.571Z,17.10
2018-06-27T09:00:17.598Z,17.90
2018-06-27T09:01:17.602Z,19.00
2018-06-27T09:02:17.846Z,20.20
2018-06-27T09:03:17.676Z,17.90
2018-06-27T09:04:18.080Z,21.60
2018-06-27T09:06:18.672Z,20.20
2018-06-27T09:07:18.308Z,18.40
2018-06-27T09:09:17.729Z,18.80
2018-06-27T09:12:17.844Z,19.30
2018-06-27T09:13:17.797Z,17.60
2018-06-27T09:14:17.814Z,19.00
2018-06-27T09:15:17.831Z,14.60
2018-06-27T09:16:17.853Z,15.80
2018-06-27T09:17:17.857Z,20.20
2018-06-27T09:18:17.877Z,15.50
2018-06-27T09:19:17.904Z,18.60
2018-06-27T09:20:17.918Z,14.90
2018-06-27T09:21:17.973Z,16.90
2018-06-27T09:22:17.940Z,15.40
2018-06-27T09:23:17.955Z,16.00
2018-06-27T09:24:17.971Z,16.00
2018-06-27T09:25:17.992Z,14.40
2018-06-27T09:26:18.006Z,14.50
2018-06-27T09:27:18.162Z,19.00
2018-06-27T09:28:18.849Z,17.20
2018-06-27T09:29:18.062Z,19.00
2018-06-27T09:30:18.571Z,17.40
2018-06-27T09:31:18.180Z,18.20
2018-06-27T09:32:18.104Z,15.50
2018-06-27T09:33:18.182Z,16.60
2018-06-27T09:34:18.431Z,14.60
2018-06-27T09:35:18.154Z,12.60
2018-06-27T09:37:18.179Z,14.50
2018-06-27T09:39:18.222Z,15.50
2018-06-27T09:40:18.810Z,14.80
2018-06-27T09:41:18.482Z,14.20
2018-06-27T09:42:19.291Z,15.70
2018-06-27T09:43:18.279Z,14.90
2018-06-27T09:44:18.872Z,16.90
2018-06-27T09:45:18.457Z,16.40
2018-06-27T09:46:18.385Z,15.40
2018-06-27T09:47:18.814Z,16.50
2018-06-27T09:48:18.620Z,15.40
2018-06-27T09:49:18.432Z,15.70
2018-06-27T09:50:18.457Z,15.40
2018-06-27T09:51:18.731Z,19.00
2018-06-27T09:52:18.845Z,17.00
2018-06-27T09:53:18.614Z,15.50
2018-06-27T09:54:18.852Z,14.20
2018-06-27T09:55:18.770Z,17.30
2018-06-27T09:56:18.520Z,19.30
2018-06-27T09:57:18.516Z,14.60
2018-06-27T09:58:18.539Z,13.10
2018-06-27T09:59:19.361Z,15.20
2018-06-27T10:00:19.131Z,16.20
2018-06-27T10:01:18.590Z,14.70
2018-06-27T10:02:18.673Z,14.90
2018-06-27T10:03:18.753Z,15.80
2018-06-27T10:04:18.636Z,13.60
2018-06-27T10:05:18.690Z,14.20
2018-06-27T10:06:18.663Z,16.90
2018-06-27T10:07:18.688Z,14.60
2018-06-27T10:08:18.697Z,14.10
2018-06-27T10:09:18.708Z,15.10
2018-06-27T10:10:18.731Z,13.40
2018-06-27T10:11:18.775Z,13.50
2018-06-27T10:12:18.764Z,10.80
2018-06-27T10:13:18.783Z,13.30
2018-06-27T10:14:18.793Z,13.20
2018-06-27T10:15:18.817Z,13.80
2018-06-27T10:16:18.830Z,10.70
2018-06-27T10:17:18.934Z,13.50
2018-06-27T10:18:18.932Z,12.90
2018-06-27T10:19:18.892Z,11.10
2018-06-27T10:20:19.040Z,14.90
2018-06-27T10:21:18.911Z,11.50
2018-06-27T10:22:18.989Z,12.10
2018-06-27T10:23:18.949Z,15.30
2018-06-27T10:24:18.968Z,11.50
2018-06-27T10:25:18.978Z,12.30
2018-06-27T10:26:19.005Z,12.20
2018-06-27T10:27:19.016Z,9.80
2018-06-27T10:28:19.038Z,12.90
2018-06-27T10:29:19.049Z,10.60
2018-06-27T10:30:19.072Z,11.40
2018-06-27T10:31:19.082Z,9.80
2018-06-27T10:32:19.109Z,14.70
2018-06-27T10:33:19.140Z,11.20
2018-06-27T10:34:19.130Z,10.90
2018-06-27T10:35:19.148Z,12.20
2018-06-27T10:36:19.168Z,11.30
2018-06-27T10:37:19.184Z,12.00
2018-06-27T10:38:19.209Z,10.90
2018-06-27T10:39:19.227Z,11.20
2018-06-27T10:40:19.236Z,8.50
2018-06-27T10:41:19.257Z,9.70
2018-06-27T10:42:21.272Z,11.20
2018-06-27T10:43:19.296Z,8.80
2018-06-27T10:44:19.302Z,9.20
2018-06-27T10:45:19.323Z,12.20
2018-06-27T10:46:19.334Z,8.90
2018-06-27T10:47:19.356Z,11.00
2018-06-27T10:48:19.368Z,10.10
2018-06-27T10:49:19.388Z,10.00
2018-06-27T10:50:19.400Z,7.80
2018-06-27T10:51:19.452Z,10.10
2018-06-27T10:52:19.434Z,9.90
2018-06-27T10:53:19.450Z,10.80
2018-06-27T10:54:19.488Z,7.30
2018-06-27T10:55:19.485Z,11.80
2018-06-27T10:56:19.501Z,8.10
2018-06-27T10:57:19.522Z,10.10
2018-06-27T10:58:19.540Z,8.10
2018-06-27T10:59:19.556Z,9.50
2018-06-27T11:00:19.571Z,7.30
2018-06-27T11:01:19.591Z,8.70
2018-06-27T11:02:19.616Z,8.90
2018-06-27T11:03:19.634Z,5.90
2018-06-27T11:04:19.642Z,6.20
2018-06-27T11:05:19.673Z,7.00
2018-06-27T11:06:19.676Z,7.40
2018-06-27T11:07:19.694Z,7.40
2018-06-27T11:08:19.713Z,8.60
2018-06-27T11:09:19.731Z,7.60
2018-06-27T11:10:19.749Z,6.70
2018-06-27T11:11:19.763Z,6.20
2018-06-27T11:12:19.786Z,8.10
2018-06-27T11:13:19.800Z,8.10
2018-06-27T11:14:19.829Z,9.20
2018-06-27T11:15:19.879Z,7.10
2018-06-27T11:16:19.861Z,6.80
2018-06-27T11:17:20.342Z,5.30
2018-06-27T11:18:19.896Z,7.00
2018-06-27T11:19:19.921Z,5.80
2018-06-27T11:20:19.954Z,4.50
2018-06-27T11:21:19.944Z,4.70
2018-06-27T11:22:19.964Z,4.90
2018-06-27T11:23:21.244Z,4.70
2018-06-27T11:24:19.997Z,10.20
2018-06-27T11:25:20.033Z,5.10
2018-06-27T11:26:20.032Z,5.30
2018-06-27T11:27:20.058Z,6.20
2018-06-27T11:28:20.068Z,4.90
2018-06-27T11:29:20.108Z,4.30
2018-06-27T11:30:20.111Z,3.60
2018-06-27T11:31:20.184Z,5.40
2018-06-27T11:32:20.144Z,5.50
2018-06-27T11:33:20.160Z,5.40
2018-06-27T11:34:20.183Z,4.60
2018-06-27T11:35:20.198Z,5.40
2018-06-27T11:36:20.217Z,5.50
2018-06-27T11:37:20.230Z,5.10
2018-06-27T11:38:20.261Z,4.90
2018-06-27T11:39:20.271Z,4.70
2018-06-27T11:40:20.292Z,4.70
2018-06-27T11:41:20.303Z,4.10
2018-06-27T11:42:20.325Z,4.90
2018-06-27T11:43:20.389Z,4.50
2018-06-27T11:44:20.365Z,3.90
2018-06-27T11:45:20.381Z,5.20
2018-06-27T11:46:20.401Z,4.80
2018-06-27T11:47:20.561Z,5.00
2018-06-27T11:49:20.786Z,4.20
2018-06-27T11:50:20.490Z,5.10
2018-06-27T11:51:20.490Z,4.40
2018-06-27T11:52:20.505Z,4.10
2018-06-27T11:53:20.542Z,6.10
2018-06-27T11:54:20.553Z,4.80
2018-06-27T11:55:20.559Z,5.50
2018-06-27T11:56:20.584Z,5.20
2018-06-27T11:58:20.623Z,5.10
2018-06-27T11:59:20.634Z,4.60
2018-06-27T12:00:20.653Z,5.40
2018-06-27T12:01:20.672Z,3.90
2018-06-27T12:02:20.689Z,4.00
2018-06-27T12:03:20.710Z,6.40
2018-06-27T12:04:20.730Z,5.20
2018-06-27T12:05:20.743Z,4.10
2018-06-27T12:06:20.813Z,6.40
2018-06-27T12:07:20.786Z,4.60
2018-06-27T12:08:20.809Z,5.00
2018-06-27T12:09:20.820Z,4.10
2018-06-27T12:10:20.844Z,3.40
2018-06-27T12:11:20.860Z,3.80
2018-06-27T12:12:20.877Z,5.80
2018-06-27T12:13:20.898Z,4.20
2018-06-27T12:14:20.915Z,4.60
2018-06-27T12:15:20.933Z,4.30
2018-06-27T12:16:20.955Z,6.20
2018-06-27T12:17:20.972Z,5.10
2018-06-27T12:18:20.991Z,5.70
2018-06-27T12:19:21.010Z,5.10
2018-06-27T12:20:21.031Z,4.80
2018-06-27T12:21:21.049Z,3.90
2018-06-27T12:22:21.078Z,4.40
2018-06-27T12:23:21.087Z,3.50
2018-06-27T12:24:21.106Z,4.30
2018-06-27T12:25:21.124Z,3.10
2018-06-27T12:26:21.158Z,5.30
2018-06-27T12:27:21.162Z,4.80
2018-06-27T12:28:21.212Z,3.60
2018-06-27T12:29:21.206Z,2.70
2018-06-27T12:30:21.231Z,6.50
2018-06-27T12:31:21.247Z,4.00
2018-06-27T12:32:21.319Z,4.90
2018-06-27T12:33:21.284Z,6.20
2018-06-27T12:34:21.295Z,6.30
2018-06-27T12:35:21.318Z,4.60
2018-06-27T12:36:21.337Z,3.90
2018-06-27T12:37:21.361Z,3.80
2018-06-27T12:38:21.378Z,6.10
2018-06-27T12:39:21.411Z,5.20
2018-06-27T12:40:21.428Z,4.70
2018-06-27T12:41:21.439Z,3.90
2018-06-27T12:42:21.464Z,5.10
2018-06-27T12:43:21.490Z,4.30
2018-06-27T12:44:21.567Z,5.10
2018-06-27T12:45:21.531Z,4.50
2018-06-27T12:46:21.549Z,5.30
2018-06-27T12:47:21.569Z,6.20
2018-06-27T12:48:21.593Z,4.60
2018-06-27T12:49:21.614Z,4.00
2018-06-27T12:50:21.644Z,3.30
2018-06-27T12:51:21.661Z,4.30
2018-06-27T12:52:21.720Z,5.10
2018-06-27T12:53:21.728Z,4.50
2018-06-27T12:54:21.731Z,5.80
2018-06-27T12:55:21.763Z,4.50
2018-06-27T12:56:21.774Z,2.80
2018-06-27T12:57:21.797Z,3.00
2018-06-27T12:58:21.822Z,3.90
2018-06-27T12:59:21.848Z,6.00
2018-06-27T13:00:21.911Z,3.30
2018-06-27T13:01:21.944Z,5.00
2018-06-27T13:02:21.917Z,4.10
2018-06-27T13:03:21.996Z,6.30
2018-06-27T13:04:21.990Z,6.80
2018-06-27T13:05:22.042Z,8.50
2018-06-27T13:06:22.018Z,5.30
2018-06-27T13:07:22.037Z,5.60
2018-06-27T13:08:22.089Z,4.50
2018-06-27T13:09:22.160Z,4.10
2018-06-27T13:10:22.116Z,5.10
2018-06-27T13:11:22.139Z,4.90
2018-06-27T13:12:22.195Z,6.80
2018-06-27T13:13:22.195Z,4.40
2018-06-27T13:14:22.217Z,3.30
2018-06-27T13:15:22.241Z,3.30
2018-06-27T13:16:22.273Z,3.70
2018-06-27T13:17:22.295Z,5.80
2018-06-27T13:18:22.657Z,6.90
2018-06-27T13:19:22.346Z,5.50
2018-06-27T13:20:22.373Z,3.90
2018-06-27T13:21:22.398Z,6.40
2018-06-27T13:22:22.425Z,4.10